sensor_id;sensor_type;location;lat;lon;timestamp;P1;durP1;ratioP1;P2;durP2;ratioP2
11829;SDS011;5972;42.134;24.718;2022-11-24T00:01:11;11.83;;;6.30;;
11829;SDS011;5972;42.134;24.718;2022-11-24T00:03:42;8.93;;;5.90;;
11829;SDS011;5972;42.134;24.718;2022-11-24T00:06:09;11.33;;;5.90;;
11829;SDS011;5972;42.134;24.718;2022-11-24T00:08:38;6.90;;;5.53;;
11829;SDS011;5972;42.134;24.718;2022-11-24T00:11:07;9.77;;;5.90;;
11829;SDS011;5972;42.134;24.718;2022-11-24T00:13:36;8.30;;;5.43;;
11829;SDS011;5972;42.134;24.718;2022-11-24T00:16:07;7.93;;;5.40;;
11829;SDS011;5972;42.134;24.718;2022-11-24T00:18:36;6.03;;;4.80;;
11829;SDS011;5972;42.134;24.718;2022-11-24T00:21:05;8.60;;;4.57;;
11829;SDS011;5972;42.134;24.718;2022-11-24T00:23:32;6.67;;;4.53;;
11829;SDS011;5972;42.134;24.718;2022-11-24T00:26:03;5.50;;;4.37;;
11829;SDS011;5972;42.134;24.718;2022-11-24T00:28:31;7.97;;;5.00;;
11829;SDS011;5972;42.134;24.718;2022-11-24T00:30:58;9.93;;;6.70;;
11829;SDS011;5972;42.134;24.718;2022-11-24T00:33:25;8.80;;;6.97;;
11829;SDS011;5972;42.134;24.718;2022-11-24T00:35:53;12.67;;;7.37;;
11829;SDS011;5972;42.134;24.718;2022-11-24T00:38:22;9.77;;;8.10;;
11829;SDS011;5972;42.134;24.718;2022-11-24T00:40:49;13.27;;;9.73;;
11829;SDS011;5972;42.134;24.718;2022-11-24T00:43:16;15.83;;;10.70;;
11829;SDS011;5972;42.134;24.718;2022-11-24T00:45:43;13.40;;;9.23;;
11829;SDS011;5972;42.134;24.718;2022-11-24T00:48:10;17.33;;;10.93;;
11829;SDS011;5972;42.134;24.718;2022-11-24T00:50:37;15.07;;;10.93;;
11829;SDS011;5972;42.134;24.718;2022-11-24T00:53:04;16.23;;;11.67;;
11829;SDS011;5972;42.134;24.718;2022-11-24T00:55:32;17.10;;;11.73;;
11829;SDS011;5972;42.134;24.718;2022-11-24T00:57:59;15.87;;;10.40;;
11829;SDS011;5972;42.134;24.718;2022-11-24T01:00:25;15.63;;;11.23;;
11829;SDS011;5972;42.134;24.718;2022-11-24T01:02:52;12.97;;;10.00;;
11829;SDS011;5972;42.134;24.718;2022-11-24T01:05:19;17.50;;;11.20;;
11829;SDS011;5972;42.134;24.718;2022-11-24T01:07:45;12.10;;;9.53;;
11829;SDS011;5972;42.134;24.718;2022-11-24T01:10:12;14.23;;;10.07;;
11829;SDS011;5972;42.134;24.718;2022-11-24T01:12:40;11.70;;;9.77;;
11829;SDS011;5972;42.134;24.718;2022-11-24T01:15:07;15.60;;;11.07;;
11829;SDS011;5972;42.134;24.718;2022-11-24T01:17:34;15.67;;;11.83;;
11829;SDS011;5972;42.134;24.718;2022-11-24T01:20:01;17.13;;;11.13;;
11829;SDS011;5972;42.134;24.718;2022-11-24T01:22:28;17.67;;;12.53;;
11829;SDS011;5972;42.134;24.718;2022-11-24T01:24:56;19.20;;;13.03;;
11829;SDS011;5972;42.134;24.718;2022-11-24T01:27:23;16.03;;;12.17;;
11829;SDS011;5972;42.134;24.718;2022-11-24T01:29:51;21.97;;;13.27;;
11829;SDS011;5972;42.134;24.718;2022-11-24T01:32:17;18.63;;;13.57;;
11829;SDS011;5972;42.134;24.718;2022-11-24T01:34:44;17.87;;;13.47;;
11829;SDS011;5972;42.134;24.718;2022-11-24T01:37:11;18.13;;;13.67;;
11829;SDS011;5972;42.134;24.718;2022-11-24T01:39:38;18.60;;;13.63;;
11829;SDS011;5972;42.134;24.718;2022-11-24T01:42:05;19.07;;;14.73;;
11829;SDS011;5972;42.134;24.718;2022-11-24T01:44:32;19.37;;;13.90;;
11829;SDS011;5972;42.134;24.718;2022-11-24T01:47:01;19.23;;;15.27;;
11829;SDS011;5972;42.134;24.718;2022-11-24T01:49:33;20.60;;;14.87;;
11829;SDS011;5972;42.134;24.718;2022-11-24T01:52:05;19.33;;;15.67;;
11829;SDS011;5972;42.134;24.718;2022-11-24T01:54:35;18.77;;;14.60;;
11829;SDS011;5972;42.134;24.718;2022-11-24T01:57:07;22.20;;;14.97;;
11829;SDS011;5972;42.134;24.718;2022-11-24T01:59:38;18.33;;;13.80;;
11829;SDS011;5972;42.134;24.718;2022-11-24T02:02:06;23.50;;;13.60;;
11829;SDS011;5972;42.134;24.718;2022-11-24T02:04:34;19.67;;;14.40;;
11829;SDS011;5972;42.134;24.718;2022-11-24T02:07:02;21.67;;;14.10;;
11829;SDS011;5972;42.134;24.718;2022-11-24T02:09:33;19.13;;;13.70;;
11829;SDS011;5972;42.134;24.718;2022-11-24T02:12:05;19.60;;;13.70;;
11829;SDS011;5972;42.134;24.718;2022-11-24T02:14:33;16.93;;;13.60;;
11829;SDS011;5972;42.134;24.718;2022-11-24T02:17:02;19.43;;;14.57;;
11829;SDS011;5972;42.134;24.718;2022-11-24T02:19:33;17.03;;;13.70;;
11829;SDS011;5972;42.134;24.718;2022-11-24T02:22:10;17.30;;;12.63;;
11829;SDS011;5972;42.134;24.718;2022-11-24T02:24:43;18.93;;;13.37;;
11829;SDS011;5972;42.134;24.718;2022-11-24T02:27:16;17.00;;;14.07;;
11829;SDS011;5972;42.134;24.718;2022-11-24T02:29:43;16.17;;;12.90;;
11829;SDS011;5972;42.134;24.718;2022-11-24T02:32:11;16.17;;;13.17;;
11829;SDS011;5972;42.134;24.718;2022-11-24T02:34:37;19.00;;;14.10;;
11829;SDS011;5972;42.134;24.718;2022-11-24T02:37:04;19.30;;;13.63;;
11829;SDS011;5972;42.134;24.718;2022-11-24T02:39:33;17.63;;;14.10;;
11829;SDS011;5972;42.134;24.718;2022-11-24T02:42:07;16.87;;;13.20;;
11829;SDS011;5972;42.134;24.718;2022-11-24T02:44:39;17.33;;;13.97;;
11829;SDS011;5972;42.134;24.718;2022-11-24T02:47:11;18.53;;;13.87;;
11829;SDS011;5972;42.134;24.718;2022-11-24T02:49:38;19.00;;;14.77;;
11829;SDS011;5972;42.134;24.718;2022-11-24T02:52:05;20.53;;;15.93;;
11829;SDS011;5972;42.134;24.718;2022-11-24T02:54:32;19.00;;;14.50;;
11829;SDS011;5972;42.134;24.718;2022-11-24T02:56:59;22.73;;;15.20;;
11829;SDS011;5972;42.134;24.718;2022-11-24T02:59:26;22.13;;;15.93;;
11829;SDS011;5972;42.134;24.718;2022-11-24T03:01:54;21.17;;;15.97;;
11829;SDS011;5972;42.134;24.718;2022-11-24T03:04:21;21.10;;;15.43;;
11829;SDS011;5972;42.134;24.718;2022-11-24T03:06:48;21.73;;;15.87;;
11829;SDS011;5972;42.134;24.718;2022-11-24T03:09:15;18.73;;;14.57;;
11829;SDS011;5972;42.134;24.718;2022-11-24T03:11:42;18.10;;;13.97;;
11829;SDS011;5972;42.134;24.718;2022-11-24T03:14:08;18.70;;;12.93;;
11829;SDS011;5972;42.134;24.718;2022-11-24T03:16:35;18.03;;;13.70;;
11829;SDS011;5972;42.134;24.718;2022-11-24T03:19:03;17.20;;;13.00;;
11829;SDS011;5972;42.134;24.718;2022-11-24T03:21:30;16.13;;;12.90;;
11829;SDS011;5972;42.134;24.718;2022-11-24T03:23:57;16.17;;;13.13;;
11829;SDS011;5972;42.134;24.718;2022-11-24T03:26:24;16.50;;;12.37;;
11829;SDS011;5972;42.134;24.718;2022-11-24T03:28:52;16.87;;;12.93;;
11829;SDS011;5972;42.134;24.718;2022-11-24T03:31:20;15.70;;;12.13;;
11829;SDS011;5972;42.134;24.718;2022-11-24T03:33:47;16.33;;;11.57;;
11829;SDS011;5972;42.134;24.718;2022-11-24T03:36:15;13.43;;;11.27;;
11829;SDS011;5972;42.134;24.718;2022-11-24T03:38:42;17.43;;;11.70;;
11829;SDS011;5972;42.134;24.718;2022-11-24T03:41:09;16.30;;;11.70;;
11829;SDS011;5972;42.134;24.718;2022-11-24T03:43:36;15.73;;;11.87;;
11829;SDS011;5972;42.134;24.718;2022-11-24T03:46:03;17.90;;;11.47;;
11829;SDS011;5972;42.134;24.718;2022-11-24T03:48:29;16.70;;;10.50;;
11829;SDS011;5972;42.134;24.718;2022-11-24T03:50:57;13.30;;;10.40;;
11829;SDS011;5972;42.134;24.718;2022-11-24T03:53:27;14.03;;;10.03;;
11829;SDS011;5972;42.134;24.718;2022-11-24T03:55:55;13.67;;;10.50;;
11829;SDS011;5972;42.134;24.718;2022-11-24T03:58:22;14.27;;;10.03;;
11829;SDS011;5972;42.134;24.718;2022-11-24T04:00:50;15.23;;;10.23;;
11829;SDS011;5972;42.134;24.718;2022-11-24T04:03:18;13.93;;;9.93;;
11829;SDS011;5972;42.134;24.718;2022-11-24T04:05:46;11.40;;;9.60;;
11829;SDS011;5972;42.134;24.718;2022-11-24T04:08:13;15.03;;;9.80;;
11829;SDS011;5972;42.134;24.718;2022-11-24T04:10:42;14.30;;;10.03;;
11829;SDS011;5972;42.134;24.718;2022-11-24T04:13:10;15.53;;;10.03;;
11829;SDS011;5972;42.134;24.718;2022-11-24T04:15:37;12.70;;;9.50;;
11829;SDS011;5972;42.134;24.718;2022-11-24T04:18:05;12.53;;;9.43;;
11829;SDS011;5972;42.134;24.718;2022-11-24T04:20:32;14.27;;;9.53;;
11829;SDS011;5972;42.134;24.718;2022-11-24T04:22:59;13.60;;;9.53;;
11829;SDS011;5972;42.134;24.718;2022-11-24T04:25:26;12.57;;;9.07;;
11829;SDS011;5972;42.134;24.718;2022-11-24T04:27:55;13.53;;;9.60;;
11829;SDS011;5972;42.134;24.718;2022-11-24T04:30:23;16.63;;;10.30;;
11829;SDS011;5972;42.134;24.718;2022-11-24T04:32:50;12.47;;;8.67;;
11829;SDS011;5972;42.134;24.718;2022-11-24T04:35:18;12.93;;;8.80;;
11829;SDS011;5972;42.134;24.718;2022-11-24T04:37:45;15.73;;;9.17;;
11829;SDS011;5972;42.134;24.718;2022-11-24T04:40:12;15.90;;;9.23;;
11829;SDS011;5972;42.134;24.718;2022-11-24T04:42:39;18.63;;;9.33;;
11829;SDS011;5972;42.134;24.718;2022-11-24T04:45:08;14.67;;;8.40;;
11829;SDS011;5972;42.134;24.718;2022-11-24T04:47:36;13.97;;;9.03;;
11829;SDS011;5972;42.134;24.718;2022-11-24T04:50:04;14.67;;;9.50;;
11829;SDS011;5972;42.134;24.718;2022-11-24T04:52:32;15.03;;;9.47;;
11829;SDS011;5972;42.134;24.718;2022-11-24T04:54:59;16.00;;;9.37;;
11829;SDS011;5972;42.134;24.718;2022-11-24T04:57:26;15.40;;;9.50;;
11829;SDS011;5972;42.134;24.718;2022-11-24T04:59:53;14.97;;;9.27;;
11829;SDS011;5972;42.134;24.718;2022-11-24T05:02:22;11.33;;;8.93;;
11829;SDS011;5972;42.134;24.718;2022-11-24T05:04:49;14.07;;;9.40;;
11829;SDS011;5972;42.134;24.718;2022-11-24T05:07:16;12.53;;;9.20;;
11829;SDS011;5972;42.134;24.718;2022-11-24T05:09:44;13.77;;;9.83;;
11829;SDS011;5972;42.134;24.718;2022-11-24T05:12:25;13.20;;;9.17;;
11829;SDS011;5972;42.134;24.718;2022-11-24T05:14:55;13.60;;;9.17;;
11829;SDS011;5972;42.134;24.718;2022-11-24T05:17:23;12.87;;;9.20;;
11829;SDS011;5972;42.134;24.718;2022-11-24T05:19:53;16.23;;;10.27;;
11829;SDS011;5972;42.134;24.718;2022-11-24T05:22:20;23.60;;;11.33;;
11829;SDS011;5972;42.134;24.718;2022-11-24T05:24:46;20.57;;;11.77;;
11829;SDS011;5972;42.134;24.718;2022-11-24T05:27:13;22.80;;;11.00;;
11829;SDS011;5972;42.134;24.718;2022-11-24T05:29:40;14.07;;;9.83;;
11829;SDS011;5972;42.134;24.718;2022-11-24T05:32:06;13.03;;;10.53;;
11829;SDS011;5972;42.134;24.718;2022-11-24T05:34:35;20.07;;;9.93;;
11829;SDS011;5972;42.134;24.718;2022-11-24T05:37:01;13.07;;;9.33;;
11829;SDS011;5972;42.134;24.718;2022-11-24T05:39:30;11.73;;;9.40;;
11829;SDS011;5972;42.134;24.718;2022-11-24T05:41:57;12.00;;;8.90;;
11829;SDS011;5972;42.134;24.718;2022-11-24T05:44:24;13.47;;;9.33;;
11829;SDS011;5972;42.134;24.718;2022-11-24T05:46:51;13.40;;;9.47;;
11829;SDS011;5972;42.134;24.718;2022-11-24T05:49:17;14.33;;;8.70;;
11829;SDS011;5972;42.134;24.718;2022-11-24T05:51:45;15.87;;;9.40;;
11829;SDS011;5972;42.134;24.718;2022-11-24T05:54:12;13.17;;;9.23;;
11829;SDS011;5972;42.134;24.718;2022-11-24T05:56:39;13.30;;;9.00;;
11829;SDS011;5972;42.134;24.718;2022-11-24T05:59:06;14.23;;;8.90;;
11829;SDS011;5972;42.134;24.718;2022-11-24T06:01:33;13.77;;;9.43;;
11829;SDS011;5972;42.134;24.718;2022-11-24T06:04:00;14.00;;;8.60;;
11829;SDS011;5972;42.134;24.718;2022-11-24T06:06:26;13.67;;;7.47;;
11829;SDS011;5972;42.134;24.718;2022-11-24T06:08:55;12.60;;;6.93;;
11829;SDS011;5972;42.134;24.718;2022-11-24T06:11:22;9.60;;;7.07;;
11829;SDS011;5972;42.134;24.718;2022-11-24T06:13:48;21.60;;;8.53;;
11829;SDS011;5972;42.134;24.718;2022-11-24T06:16:15;15.63;;;8.50;;
11829;SDS011;5972;42.134;24.718;2022-11-24T06:18:42;21.17;;;9.37;;
11829;SDS011;5972;42.134;24.718;2022-11-24T06:21:08;11.67;;;7.27;;
11829;SDS011;5972;42.134;24.718;2022-11-24T06:23:35;11.83;;;7.43;;
11829;SDS011;5972;42.134;24.718;2022-11-24T06:26:04;11.63;;;8.00;;
11829;SDS011;5972;42.134;24.718;2022-11-24T06:28:31;16.70;;;7.43;;
11829;SDS011;5972;42.134;24.718;2022-11-24T06:31:01;12.77;;;7.77;;
11829;SDS011;5972;42.134;24.718;2022-11-24T06:33:31;9.90;;;6.90;;
11829;SDS011;5972;42.134;24.718;2022-11-24T06:35:59;12.97;;;6.70;;
11829;SDS011;5972;42.134;24.718;2022-11-24T06:38:27;11.37;;;6.30;;
11829;SDS011;5972;42.134;24.718;2022-11-24T06:40:58;11.77;;;6.60;;
11829;SDS011;5972;42.134;24.718;2022-11-24T06:43:27;15.23;;;6.77;;
11829;SDS011;5972;42.134;24.718;2022-11-24T06:45:54;11.30;;;6.77;;
11829;SDS011;5972;42.134;24.718;2022-11-24T06:48:21;12.63;;;7.10;;
11829;SDS011;5972;42.134;24.718;2022-11-24T06:50:48;14.90;;;7.43;;
11829;SDS011;5972;42.134;24.718;2022-11-24T06:53:15;20.90;;;7.80;;
11829;SDS011;5972;42.134;24.718;2022-11-24T06:55:42;12.40;;;6.37;;
11829;SDS011;5972;42.134;24.718;2022-11-24T06:58:10;15.87;;;6.10;;
11829;SDS011;5972;42.134;24.718;2022-11-24T07:00:38;9.50;;;6.37;;
11829;SDS011;5972;42.134;24.718;2022-11-24T07:03:05;10.07;;;5.80;;
11829;SDS011;5972;42.134;24.718;2022-11-24T07:05:32;12.43;;;5.97;;
11829;SDS011;5972;42.134;24.718;2022-11-24T07:07:58;14.00;;;6.60;;
11829;SDS011;5972;42.134;24.718;2022-11-24T07:10:25;8.20;;;5.78;;
11829;SDS011;5972;42.134;24.718;2022-11-24T07:12:52;7.77;;;5.47;;
11829;SDS011;5972;42.134;24.718;2022-11-24T07:15:19;8.23;;;5.03;;
11829;SDS011;5972;42.134;24.718;2022-11-24T07:17:47;15.23;;;5.43;;
11829;SDS011;5972;42.134;24.718;2022-11-24T07:20:14;11.32;;;6.25;;
11829;SDS011;5972;42.134;24.718;2022-11-24T07:22:42;9.95;;;5.05;;
11829;SDS011;5972;42.134;24.718;2022-11-24T07:25:08;10.50;;;5.75;;
11829;SDS011;5972;42.134;24.718;2022-11-24T07:27:36;8.50;;;5.15;;
11829;SDS011;5972;42.134;24.718;2022-11-24T07:30:03;7.75;;;4.90;;
11829;SDS011;5972;42.134;24.718;2022-11-24T07:32:30;5.40;;;4.35;;
11829;SDS011;5972;42.134;24.718;2022-11-24T07:34:58;8.38;;;4.97;;
11829;SDS011;5972;42.134;24.718;2022-11-24T07:37:25;11.73;;;5.68;;
11829;SDS011;5972;42.134;24.718;2022-11-24T07:39:52;7.88;;;5.32;;
11829;SDS011;5972;42.134;24.718;2022-11-24T07:42:19;9.52;;;5.53;;
11829;SDS011;5972;42.134;24.718;2022-11-24T07:44:45;7.53;;;5.07;;
11829;SDS011;5972;42.134;24.718;2022-11-24T07:47:12;9.15;;;5.55;;
11829;SDS011;5972;42.134;24.718;2022-11-24T07:49:39;7.72;;;5.32;;
11829;SDS011;5972;42.134;24.718;2022-11-24T07:52:07;11.90;;;5.07;;
11829;SDS011;5972;42.134;24.718;2022-11-24T07:54:34;9.45;;;5.20;;
11829;SDS011;5972;42.134;24.718;2022-11-24T07:57:01;11.57;;;4.97;;
11829;SDS011;5972;42.134;24.718;2022-11-24T07:59:28;9.55;;;4.82;;
11829;SDS011;5972;42.134;24.718;2022-11-24T08:01:54;7.97;;;5.00;;
11829;SDS011;5972;42.134;24.718;2022-11-24T08:04:21;7.38;;;4.72;;
11829;SDS011;5972;42.134;24.718;2022-11-24T08:06:48;8.15;;;4.85;;
11829;SDS011;5972;42.134;24.718;2022-11-24T08:09:16;9.60;;;4.95;;
11829;SDS011;5972;42.134;24.718;2022-11-24T08:11:43;6.65;;;4.60;;
11829;SDS011;5972;42.134;24.718;2022-11-24T08:14:12;9.23;;;5.03;;
11829;SDS011;5972;42.134;24.718;2022-11-24T08:16:44;8.70;;;4.97;;
11829;SDS011;5972;42.134;24.718;2022-11-24T08:19:11;9.52;;;5.28;;
11829;SDS011;5972;42.134;24.718;2022-11-24T08:21:38;5.80;;;4.22;;
11829;SDS011;5972;42.134;24.718;2022-11-24T08:24:05;7.93;;;4.50;;
11829;SDS011;5972;42.134;24.718;2022-11-24T08:26:34;7.25;;;4.40;;
11829;SDS011;5972;42.134;24.718;2022-11-24T08:29:01;7.13;;;4.28;;
11829;SDS011;5972;42.134;24.718;2022-11-24T08:31:28;4.72;;;3.97;;
11829;SDS011;5972;42.134;24.718;2022-11-24T08:33:58;6.80;;;4.40;;
11829;SDS011;5972;42.134;24.718;2022-11-24T08:36:25;5.10;;;3.70;;
11829;SDS011;5972;42.134;24.718;2022-11-24T08:38:55;5.55;;;3.85;;
11829;SDS011;5972;42.134;24.718;2022-11-24T08:41:23;4.18;;;3.63;;
11829;SDS011;5972;42.134;24.718;2022-11-24T08:43:52;5.18;;;4.05;;
11829;SDS011;5972;42.134;24.718;2022-11-24T08:46:19;4.97;;;4.00;;
11829;SDS011;5972;42.134;24.718;2022-11-24T08:48:47;10.13;;;4.22;;
11829;SDS011;5972;42.134;24.718;2022-11-24T08:51:17;5.40;;;3.60;;
11829;SDS011;5972;42.134;24.718;2022-11-24T08:53:45;3.60;;;3.22;;
11829;SDS011;5972;42.134;24.718;2022-11-24T08:56:12;9.57;;;4.03;;
11829;SDS011;5972;42.134;24.718;2022-11-24T08:58:39;6.70;;;3.53;;
11829;SDS011;5972;42.134;24.718;2022-11-24T09:01:09;5.18;;;3.70;;
11829;SDS011;5972;42.134;24.718;2022-11-24T09:03:37;4.25;;;3.53;;
11829;SDS011;5972;42.134;24.718;2022-11-24T09:06:06;6.18;;;3.45;;
11829;SDS011;5972;42.134;24.718;2022-11-24T09:08:34;6.65;;;3.83;;
11829;SDS011;5972;42.134;24.718;2022-11-24T09:11:02;5.05;;;3.88;;
11829;SDS011;5972;42.134;24.718;2022-11-24T09:13:30;8.57;;;3.58;;
11829;SDS011;5972;42.134;24.718;2022-11-24T09:16:01;7.75;;;3.90;;
11829;SDS011;5972;42.134;24.718;2022-11-24T09:18:30;6.35;;;3.55;;
11829;SDS011;5972;42.134;24.718;2022-11-24T09:21:04;6.13;;;3.80;;
11829;SDS011;5972;42.134;24.718;2022-11-24T09:23:32;8.10;;;3.70;;
11829;SDS011;5972;42.134;24.718;2022-11-24T09:26:01;9.63;;;4.40;;
11829;SDS011;5972;42.134;24.718;2022-11-24T09:28:29;5.70;;;3.45;;
11829;SDS011;5972;42.134;24.718;2022-11-24T09:30:58;3.75;;;3.33;;
11829;SDS011;5972;42.134;24.718;2022-11-24T09:33:26;4.30;;;3.25;;
11829;SDS011;5972;42.134;24.718;2022-11-24T09:35:54;5.30;;;3.22;;
11829;SDS011;5972;42.134;24.718;2022-11-24T09:38:21;4.35;;;3.00;;
11829;SDS011;5972;42.134;24.718;2022-11-24T09:40:48;5.85;;;3.33;;
11829;SDS011;5972;42.134;24.718;2022-11-24T09:43:15;3.13;;;2.83;;
11829;SDS011;5972;42.134;24.718;2022-11-24T09:45:50;5.90;;;3.00;;
11829;SDS011;5972;42.134;24.718;2022-11-24T09:48:26;6.50;;;2.95;;
11829;SDS011;5972;42.134;24.718;2022-11-24T09:50:58;6.45;;;2.65;;
11829;SDS011;5972;42.134;24.718;2022-11-24T09:53:28;6.93;;;2.38;;
11829;SDS011;5972;42.134;24.718;2022-11-24T09:56:01;7.47;;;2.10;;
11829;SDS011;5972;42.134;24.718;2022-11-24T09:58:32;5.57;;;2.00;;
11829;SDS011;5972;42.134;24.718;2022-11-24T10:01:06;5.00;;;2.20;;
11829;SDS011;5972;42.134;24.718;2022-11-24T10:03:40;2.60;;;2.03;;
11829;SDS011;5972;42.134;24.718;2022-11-24T10:06:14;5.95;;;2.17;;
11829;SDS011;5972;42.134;24.718;2022-11-24T10:09:01;6.53;;;2.30;;
11829;SDS011;5972;42.134;24.718;2022-11-24T10:11:37;3.50;;;2.42;;
11829;SDS011;5972;42.134;24.718;2022-11-24T10:17:16;6.70;;;2.00;;
11829;SDS011;5972;42.134;24.718;2022-11-24T10:19:50;4.80;;;2.50;;
11829;SDS011;5972;42.134;24.718;2022-11-24T10:22:29;6.65;;;1.92;;
11829;SDS011;5972;42.134;24.718;2022-11-24T10:25:10;7.35;;;2.20;;
11829;SDS011;5972;42.134;24.718;2022-11-24T10:27:43;3.22;;;2.33;;
11829;SDS011;5972;42.134;24.718;2022-11-24T10:30:13;5.82;;;2.42;;
11829;SDS011;5972;42.134;24.718;2022-11-24T10:32:44;3.50;;;2.10;;
11829;SDS011;5972;42.134;24.718;2022-11-24T10:35:14;3.97;;;1.85;;
11829;SDS011;5972;42.134;24.718;2022-11-24T10:37:47;5.55;;;1.85;;
11829;SDS011;5972;42.134;24.718;2022-11-24T10:40:23;5.45;;;1.95;;
11829;SDS011;5972;42.134;24.718;2022-11-24T10:42:57;4.40;;;2.25;;
11829;SDS011;5972;42.134;24.718;2022-11-24T10:45:25;5.57;;;1.80;;
11829;SDS011;5972;42.134;24.718;2022-11-24T10:47:53;3.55;;;1.77;;
11829;SDS011;5972;42.134;24.718;2022-11-24T10:50:21;6.75;;;2.20;;
11829;SDS011;5972;42.134;24.718;2022-11-24T10:53:03;3.30;;;1.52;;
11829;SDS011;5972;42.134;24.718;2022-11-24T10:55:58;1.65;;;1.40;;
11829;SDS011;5972;42.134;24.718;2022-11-24T10:58:28;2.42;;;1.85;;
11829;SDS011;5972;42.134;24.718;2022-11-24T11:00:57;4.15;;;2.13;;
11829;SDS011;5972;42.134;24.718;2022-11-24T11:03:26;5.93;;;2.13;;
11829;SDS011;5972;42.134;24.718;2022-11-24T11:05:58;10.18;;;2.28;;
11829;SDS011;5972;42.134;24.718;2022-11-24T11:08:28;4.05;;;2.05;;
11829;SDS011;5972;42.134;24.718;2022-11-24T11:13:54;2.47;;;1.73;;
11829;SDS011;5972;42.134;24.718;2022-11-24T11:16:22;7.25;;;2.10;;
11829;SDS011;5972;42.134;24.718;2022-11-24T11:18:51;4.82;;;2.25;;
11829;SDS011;5972;42.134;24.718;2022-11-24T11:21:24;4.47;;;2.40;;
11829;SDS011;5972;42.134;24.718;2022-11-24T11:23:55;4.70;;;2.03;;
11829;SDS011;5972;42.134;24.718;2022-11-24T11:26:30;2.70;;;2.03;;
11829;SDS011;5972;42.134;24.718;2022-11-24T11:28:59;4.40;;;2.28;;
11829;SDS011;5972;42.134;24.718;2022-11-24T11:31:28;8.07;;;2.28;;
11829;SDS011;5972;42.134;24.718;2022-11-24T11:33:58;7.20;;;2.30;;
11829;SDS011;5972;42.134;24.718;2022-11-24T11:36:27;2.78;;;1.85;;
11829;SDS011;5972;42.134;24.718;2022-11-24T11:38:59;5.25;;;1.92;;
11829;SDS011;5972;42.134;24.718;2022-11-24T11:41:29;3.28;;;1.40;;
11829;SDS011;5972;42.134;24.718;2022-11-24T11:44:10;2.20;;;1.73;;
11829;SDS011;5972;42.134;24.718;2022-11-24T11:46:46;11.30;;;2.00;;
11829;SDS011;5972;42.134;24.718;2022-11-24T11:49:13;5.90;;;1.65;;
11829;SDS011;5972;42.134;24.718;2022-11-24T11:51:51;4.30;;;2.15;;
11829;SDS011;5972;42.134;24.718;2022-11-24T11:54:44;3.60;;;1.35;;
11829;SDS011;5972;42.134;24.718;2022-11-24T11:57:41;3.20;;;1.58;;
11829;SDS011;5972;42.134;24.718;2022-11-24T12:00:18;2.90;;;1.45;;
11829;SDS011;5972;42.134;24.718;2022-11-24T12:02:56;4.55;;;1.90;;
11829;SDS011;5972;42.134;24.718;2022-11-24T12:05:44;3.30;;;1.88;;
11829;SDS011;5972;42.134;24.718;2022-11-24T12:08:20;3.08;;;1.83;;
11829;SDS011;5972;42.134;24.718;2022-11-24T12:10:59;2.75;;;2.03;;
11829;SDS011;5972;42.134;24.718;2022-11-24T12:13:40;4.65;;;2.85;;
11829;SDS011;5972;42.134;24.718;2022-11-24T12:16:28;2.58;;;2.10;;
11829;SDS011;5972;42.134;24.718;2022-11-24T12:19:10;3.92;;;2.00;;
11829;SDS011;5972;42.134;24.718;2022-11-24T12:21:46;3.78;;;2.38;;
11829;SDS011;5972;42.134;24.718;2022-11-24T12:24:30;6.32;;;2.95;;
11829;SDS011;5972;42.134;24.718;2022-11-24T12:27:09;3.25;;;2.78;;
11829;SDS011;5972;42.134;24.718;2022-11-24T12:29:48;3.72;;;3.40;;
11829;SDS011;5972;42.134;24.718;2022-11-24T12:35:28;5.18;;;3.20;;
11829;SDS011;5972;42.134;24.718;2022-11-24T12:38:04;4.25;;;3.28;;
11829;SDS011;5972;42.134;24.718;2022-11-24T12:40:56;4.05;;;3.70;;
11829;SDS011;5972;42.134;24.718;2022-11-24T12:43:34;5.97;;;3.42;;
11829;SDS011;5972;42.134;24.718;2022-11-24T12:46:03;5.13;;;3.58;;
11829;SDS011;5972;42.134;24.718;2022-11-24T12:48:39;4.13;;;3.65;;
11829;SDS011;5972;42.134;24.718;2022-11-24T12:51:16;9.75;;;4.07;;
11829;SDS011;5972;42.134;24.718;2022-11-24T12:53:44;6.95;;;3.97;;
11829;SDS011;5972;42.134;24.718;2022-11-24T12:56:13;4.20;;;3.63;;
11829;SDS011;5972;42.134;24.718;2022-11-24T12:58:44;5.22;;;3.47;;
11829;SDS011;5972;42.134;24.718;2022-11-24T13:01:22;6.85;;;3.72;;
11829;SDS011;5972;42.134;24.718;2022-11-24T13:04:02;9.10;;;3.40;;
11829;SDS011;5972;42.134;24.718;2022-11-24T13:06:37;4.57;;;3.70;;
11829;SDS011;5972;42.134;24.718;2022-11-24T13:09:12;7.30;;;3.67;;
11829;SDS011;5972;42.134;24.718;2022-11-24T13:11:40;5.57;;;3.72;;
11829;SDS011;5972;42.134;24.718;2022-11-24T13:14:14;5.68;;;3.50;;
11829;SDS011;5972;42.134;24.718;2022-11-24T13:16:53;4.93;;;2.70;;
11829;SDS011;5972;42.134;24.718;2022-11-24T13:19:22;6.60;;;3.05;;
11829;SDS011;5972;42.134;24.718;2022-11-24T13:22:08;5.10;;;2.75;;
11829;SDS011;5972;42.134;24.718;2022-11-24T13:24:40;4.47;;;3.00;;
11829;SDS011;5972;42.134;24.718;2022-11-24T13:27:24;4.47;;;3.17;;
11829;SDS011;5972;42.134;24.718;2022-11-24T13:33:27;7.32;;;3.22;;
11829;SDS011;5972;42.134;24.718;2022-11-24T13:38:55;5.88;;;3.15;;
11829;SDS011;5972;42.134;24.718;2022-11-24T13:44:46;5.25;;;2.47;;
11829;SDS011;5972;42.134;24.718;2022-11-24T13:47:31;2.83;;;2.22;;
11829;SDS011;5972;42.134;24.718;2022-11-24T13:50:01;3.60;;;2.60;;
11829;SDS011;5972;42.134;24.718;2022-11-24T13:52:48;4.75;;;2.33;;
11829;SDS011;5972;42.134;24.718;2022-11-24T13:55:24;3.47;;;2.30;;
11829;SDS011;5972;42.134;24.718;2022-11-24T13:57:56;3.13;;;2.00;;
11829;SDS011;5972;42.134;24.718;2022-11-24T14:00:26;4.68;;;2.30;;
11829;SDS011;5972;42.134;24.718;2022-11-24T14:02:56;2.35;;;2.15;;
11829;SDS011;5972;42.134;24.718;2022-11-24T14:05:29;4.75;;;2.20;;
11829;SDS011;5972;42.134;24.718;2022-11-24T14:08:00;3.20;;;1.92;;
11829;SDS011;5972;42.134;24.718;2022-11-24T14:10:29;8.57;;;2.67;;
11829;SDS011;5972;42.134;24.718;2022-11-24T14:13:14;8.68;;;2.30;;
11829;SDS011;5972;42.134;24.718;2022-11-24T14:15:42;3.45;;;2.10;;
11829;SDS011;5972;42.134;24.718;2022-11-24T14:18:15;5.88;;;2.10;;
11829;SDS011;5972;42.134;24.718;2022-11-24T14:20:44;4.57;;;1.92;;
11829;SDS011;5972;42.134;24.718;2022-11-24T14:23:10;2.63;;;1.98;;
11829;SDS011;5972;42.134;24.718;2022-11-24T14:25:38;4.03;;;2.08;;
11829;SDS011;5972;42.134;24.718;2022-11-24T14:28:12;8.00;;;2.78;;
11829;SDS011;5972;42.134;24.718;2022-11-24T14:30:45;4.68;;;2.90;;
11829;SDS011;5972;42.134;24.718;2022-11-24T14:33:12;5.85;;;2.90;;
11829;SDS011;5972;42.134;24.718;2022-11-24T14:35:42;3.90;;;2.72;;
11829;SDS011;5972;42.134;24.718;2022-11-24T14:38:11;2.15;;;1.92;;
11829;SDS011;5972;42.134;24.718;2022-11-24T14:40:39;6.47;;;2.22;;
11829;SDS011;5972;42.134;24.718;2022-11-24T14:43:20;7.50;;;2.88;;
11829;SDS011;5972;42.134;24.718;2022-11-24T14:45:50;6.57;;;3.00;;
11829;SDS011;5972;42.134;24.718;2022-11-24T14:48:19;3.75;;;3.05;;
11829;SDS011;5972;42.134;24.718;2022-11-24T14:50:52;3.55;;;2.90;;
11829;SDS011;5972;42.134;24.718;2022-11-24T14:53:20;3.83;;;2.45;;
11829;SDS011;5972;42.134;24.718;2022-11-24T14:58:31;5.70;;;2.70;;
11829;SDS011;5972;42.134;24.718;2022-11-24T15:01:19;6.38;;;2.70;;
11829;SDS011;5972;42.134;24.718;2022-11-24T15:06:43;4.50;;;3.00;;
11829;SDS011;5972;42.134;24.718;2022-11-24T15:09:23;9.68;;;3.75;;
11829;SDS011;5972;42.134;24.718;2022-11-24T15:11:52;7.28;;;3.92;;
11829;SDS011;5972;42.134;24.718;2022-11-24T15:14:28;5.47;;;3.13;;
11829;SDS011;5972;42.134;24.718;2022-11-24T15:17:01;15.25;;;3.90;;
11829;SDS011;5972;42.134;24.718;2022-11-24T15:19:30;7.93;;;3.38;;